Time;durP1;ratioP1;P1;durP2;ratioP2;P2;SDS_P1;SDS_P2;PMS_P1;PMS_P2;Temp;Humidity;BMP_temperature;BMP_pressure;BME280_temperature;BME280_humidity;BME280_pressure;Samples;Min_cycle;Max_cycle;Signal;HPM_P1;HPM_P2
2022/08/16 00:00:43;;;;;;;21.38;13.10;;;;;;;;;;5116217;28;20613;-45
2022/08/16 00:03:11;;;;;;;13.15;11.73;;;;;;;;;;5116007;28;20198;-45
2022/08/16 00:05:41;;;;;;;18.67;12.45;;;;;;;;;;5115813;28;20209;-45
2022/08/16 00:08:15;;;;;;;18.50;12.43;;;;;;;;;;5116329;28;20225;-47
2022/08/16 00:11:04;;;;;;;16.42;12.05;;;;;;;;;;5116156;28;20197;-46
2022/08/16 00:13:32;;;;;;;13.35;11.60;;;;;;;;;;5115868;28;20206;-45
2022/08/16 00:16:09;;;;;;;13.18;11.80;;;;;;;;;;5115342;28;20201;-46
2022/08/16 00:18:57;;;;;;;16.58;12.52;;;;;;;;;;5116159;28;20278;-45
2022/08/16 00:21:24;;;;;;;14.25;11.63;;;;;;;;;;5115928;28;20278;-46
2022/08/16 00:23:55;;;;;;;15.23;12.18;;;;;;;;;;5115932;28;20190;-45
2022/08/16 00:26:23;;;;;;;15.25;11.95;;;;;;;;;;5115645;28;20626;-45
2022/08/16 00:29:04;;;;;;;16.15;12.55;;;;;;;;;;5116082;28;20202;-45
2022/08/16 00:31:33;;;;;;;15.60;12.65;;;;;;;;;;5115234;28;20205;-45
2022/08/16 00:34:21;;;;;;;13.70;11.40;;;;;;;;;;5115766;28;20206;-45
2022/08/16 00:37:08;;;;;;;18.00;11.93;;;;;;;;;;5114825;28;20266;-51
2022/08/16 00:39:35;;;;;;;13.60;12.20;;;;;;;;;;5109661;28;20202;-45
2022/08/16 00:42:05;;;;;;;17.92;13.02;;;;;;;;;;5116479;28;20209;-47
2022/08/16 00:44:36;;;;;;;16.02;12.95;;;;;;;;;;5114089;28;20202;-45
2022/08/16 00:47:07;;;;;;;15.05;11.85;;;;;;;;;;5113864;28;20229;-46
2022/08/16 00:49:35;;;;;;;13.60;11.45;;;;;;;;;;5114002;28;20194;-47
2022/08/16 00:52:10;;;;;;;21.70;12.02;;;;;;;;;;5113885;28;20201;-47
2022/08/16 00:54:57;;;;;;;13.40;11.80;;;;;;;;;;5113929;28;20288;-45
2022/08/16 00:57:26;;;;;;;13.65;12.07;;;;;;;;;;5113575;28;20274;-46
2022/08/16 01:00:14;;;;;;;15.93;11.70;;;;;;;;;;5114397;28;20240;-45
2022/08/16 01:02:50;;;;;;;16.38;11.43;;;;;;;;;;5114573;28;20194;-46
2022/08/16 01:05:19;;;;;;;14.07;12.35;;;;;;;;;;5114483;28;20641;-46
2022/08/16 01:07:50;;;;;;;14.55;12.05;;;;;;;;;;5148427;27;20225;-45
2022/08/16 01:10:24;;;;;;;16.10;12.13;;;;;;;;;;5112923;28;20649;-47
2022/08/16 01:13:18;;;;;;;14.18;12.45;;;;;;;;;;5081693;28;20292;-45
2022/08/16 01:15:56;;;;;;;13.35;11.95;;;;;;;;;;5114624;28;20202;-45
2022/08/16 01:18:27;;;;;;;16.02;12.35;;;;;;;;;;5114384;28;20186;-45
2022/08/16 01:21:16;;;;;;;22.23;12.43;;;;;;;;;;5098574;28;20201;-47
2022/08/16 01:24:14;;;;;;;14.40;12.38;;;;;;;;;;5147647;27;20607;-45
2022/08/16 01:27:08;;;;;;;17.08;13.60;;;;;;;;;;5114301;28;20217;-46
2022/08/16 01:29:55;;;;;;;16.52;12.82;;;;;;;;;;5097820;28;20280;-45
2022/08/16 01:32:29;;;;;;;14.18;12.23;;;;;;;;;;5115023;28;20681;-47
2022/08/16 01:35:01;;;;;;;18.17;13.02;;;;;;;;;;5111777;28;20304;-52
2022/08/16 01:37:29;;;;;;;16.10;13.27;;;;;;;;;;5096057;28;20203;-45
2022/08/16 01:40:05;;;;;;;15.90;13.23;;;;;;;;;;5098630;28;20182;-45
2022/08/16 01:42:34;;;;;;;14.45;12.68;;;;;;;;;;5114388;28;20264;-45
2022/08/16 01:45:03;;;;;;;18.67;12.65;;;;;;;;;;5114214;28;20198;-45
2022/08/16 01:47:31;;;;;;;18.88;12.77;;;;;;;;;;5114215;28;20222;-45
2022/08/16 01:49:59;;;;;;;15.68;13.35;;;;;;;;;;5097428;28;20198;-46
2022/08/16 01:52:47;;;;;;;16.05;12.43;;;;;;;;;;5114367;28;20225;-45
2022/08/16 01:55:44;;;;;;;13.88;12.50;;;;;;;;;;5114708;28;20194;-46
2022/08/16 01:58:20;;;;;;;17.95;13.40;;;;;;;;;;5115882;28;20234;-45
2022/08/16 02:00:49;;;;;;;20.60;12.98;;;;;;;;;;5101792;28;20209;-46
2022/08/16 02:03:17;;;;;;;15.77;12.85;;;;;;;;;;5117963;28;20214;-46
2022/08/16 02:05:51;;;;;;;18.85;12.73;;;;;;;;;;5117941;28;20197;-46
2022/08/16 02:08:18;;;;;;;16.00;13.00;;;;;;;;;;5117576;28;20650;-46
2022/08/16 02:11:01;;;;;;;16.08;12.38;;;;;;;;;;5118099;28;20216;-49
2022/08/16 02:13:29;;;;;;;17.85;12.15;;;;;;;;;;5118648;28;20266;-48
2022/08/16 02:15:59;;;;;;;17.88;12.07;;;;;;;;;;5117554;28;20186;-46
2022/08/16 02:18:27;;;;;;;16.00;12.80;;;;;;;;;;5117744;28;20217;-45
2022/08/16 02:20:57;;;;;;;16.70;11.90;;;;;;;;;;5118108;27;20289;-46
2022/08/16 02:23:25;;;;;;;15.32;12.52;;;;;;;;;;5118299;28;20622;-46
2022/08/16 02:25:55;;;;;;;16.70;12.38;;;;;;;;;;5118177;28;20633;-45
2022/08/16 02:28:25;;;;;;;15.38;12.00;;;;;;;;;;5148388;27;20234;-46
2022/08/16 02:30:54;;;;;;;14.00;12.20;;;;;;;;;;5117964;28;20218;-46
2022/08/16 02:33:23;;;;;;;18.35;11.18;;;;;;;;;;5117477;28;20303;-45
2022/08/16 02:36:33;;;;;;;17.27;12.05;;;;;;;;;;5118422;28;20217;-45
2022/08/16 02:39:19;;;;;;;19.35;12.45;;;;;;;;;;5115381;28;20762;-45
2022/08/16 02:41:51;;;;;;;16.40;11.85;;;;;;;;;;5117223;28;20538;-46
2022/08/16 02:44:22;;;;;;;14.30;11.40;;;;;;;;;;5116997;28;20280;-46
2022/08/16 02:46:53;;;;;;;15.55;10.98;;;;;;;;;;5151579;27;20190;-46
2022/08/16 02:49:22;;;;;;;18.58;11.50;;;;;;;;;;5116656;28;20241;-46
2022/08/16 02:52:11;;;;;;;15.20;11.63;;;;;;;;;;5116664;28;20210;-45
2022/08/16 02:54:54;;;;;;;14.68;12.10;;;;;;;;;;5116597;28;20259;-46
2022/08/16 02:57:23;;;;;;;13.73;11.50;;;;;;;;;;5116419;28;20294;-46
2022/08/16 02:59:51;;;;;;;12.63;11.40;;;;;;;;;;5116578;28;20287;-46
2022/08/16 03:02:18;;;;;;;13.82;11.50;;;;;;;;;;5116349;28;20258;-49
2022/08/16 03:04:59;;;;;;;12.95;11.60;;;;;;;;;;5116796;28;20194;-46
2022/08/16 03:07:27;;;;;;;17.15;11.48;;;;;;;;;;5116091;28;20198;-46
2022/08/16 03:10:08;;;;;;;14.07;11.73;;;;;;;;;;5150345;27;20226;-46
2022/08/16 03:12:42;;;;;;;12.43;11.00;;;;;;;;;;5116176;28;20610;-46
2022/08/16 03:15:26;;;;;;;12.35;10.90;;;;;;;;;;5150815;27;20197;-49
2022/08/16 03:17:55;;;;;;;11.57;10.38;;;;;;;;;;5116176;28;20221;-45
2022/08/16 03:20:25;;;;;;;12.68;10.82;;;;;;;;;;5150331;27;20182;-46
2022/08/16 03:23:00;;;;;;;13.93;10.63;;;;;;;;;;5115005;28;20234;-53
2022/08/16 03:25:28;;;;;;;16.27;11.00;;;;;;;;;;5113647;28;20198;-45
2022/08/16 03:28:11;;;;;;;13.05;10.93;;;;;;;;;;5115978;28;20210;-45
2022/08/16 03:30:39;;;;;;;12.13;10.55;;;;;;;;;;5148848;27;20198;-53
2022/08/16 03:33:09;;;;;;;14.82;11.43;;;;;;;;;;5116693;28;20278;-47
2022/08/16 03:35:44;;;;;;;14.80;11.02;;;;;;;;;;5123968;27;20622;-47
2022/08/16 03:38:23;;;;;;;13.52;11.32;;;;;;;;;;5136195;27;20495;-47
2022/08/16 03:41:09;;;;;;;13.60;11.02;;;;;;;;;;5136615;27;20182;-47
2022/08/16 03:43:53;;;;;;;16.20;11.07;;;;;;;;;;5137093;27;20345;-46
2022/08/16 03:46:22;;;;;;;13.35;10.65;;;;;;;;;;5136369;27;20185;-47
2022/08/16 03:49:12;;;;;;;13.02;10.40;;;;;;;;;;5136231;27;20585;-46
2022/08/16 03:51:43;;;;;;;13.77;10.75;;;;;;;;;;5136738;27;20201;-49
2022/08/16 03:54:17;;;;;;;12.90;10.70;;;;;;;;;;5136105;27;20629;-46
2022/08/16 03:56:46;;;;;;;11.80;10.52;;;;;;;;;;5136326;27;20201;-46
2022/08/16 03:59:25;;;;;;;12.90;10.07;;;;;;;;;;5131543;27;20295;-46
2022/08/16 04:01:59;;;;;;;16.45;11.13;;;;;;;;;;5122695;27;20649;-48
2022/08/16 04:04:28;;;;;;;14.10;10.93;;;;;;;;;;5127728;27;20210;-46
2022/08/16 04:07:03;;;;;;;15.25;11.00;;;;;;;;;;5128421;27;20236;-46
2022/08/16 04:09:35;;;;;;;16.58;11.57;;;;;;;;;;5135424;27;20237;-46
2022/08/16 04:12:08;;;;;;;15.02;11.35;;;;;;;;;;5169650;27;20567;-47
2022/08/16 04:14:38;;;;;;;14.48;11.27;;;;;;;;;;5117943;27;20221;-49
2022/08/16 04:17:15;;;;;;;15.15;11.95;;;;;;;;;;5138525;27;20235;-49
2022/08/16 04:19:43;;;;;;;16.30;11.65;;;;;;;;;;5151220;27;20281;-50
2022/08/16 04:22:15;;;;;;;17.80;11.82;;;;;;;;;;5155252;27;20216;-49
2022/08/16 04:24:49;;;;;;;16.55;11.60;;;;;;;;;;5155726;27;20223;-51
2022/08/16 04:27:29;;;;;;;19.50;11.63;;;;;;;;;;5155671;27;20216;-45
2022/08/16 04:29:59;;;;;;;17.55;12.57;;;;;;;;;;5155348;27;20679;-45
2022/08/16 04:32:34;;;;;;;15.32;12.60;;;;;;;;;;5155518;27;20289;-46
2022/08/16 04:35:09;;;;;;;15.85;12.75;;;;;;;;;;5155603;27;20548;-44
2022/08/16 04:37:44;;;;;;;14.13;12.02;;;;;;;;;;5155500;27;20212;-51
2022/08/16 04:40:19;;;;;;;15.90;11.82;;;;;;;;;;5155439;27;20219;-45
2022/08/16 04:42:49;;;;;;;14.27;12.07;;;;;;;;;;5156255;27;20236;-49
2022/08/16 04:45:19;;;;;;;13.30;11.85;;;;;;;;;;5155109;27;20547;-45
2022/08/16 04:48:12;;;;;;;14.80;12.50;;;;;;;;;;5141733;27;20613;-45
2022/08/16 04:50:58;;;;;;;17.27;11.93;;;;;;;;;;5134366;27;20232;-45
2022/08/16 04:53:37;;;;;;;15.40;11.20;;;;;;;;;;5133796;27;20228;-47
2022/08/16 04:56:07;;;;;;;14.57;11.85;;;;;;;;;;5133649;27;20666;-45
2022/08/16 04:58:38;;;;;;;16.88;12.55;;;;;;;;;;5133856;27;20241;-51
2022/08/16 05:01:16;;;;;;;16.13;12.45;;;;;;;;;;5133740;27;20250;-45
2022/08/16 05:03:44;;;;;;;19.80;12.52;;;;;;;;;;5134803;27;20312;-50
2022/08/16 05:06:29;;;;;;;16.30;12.98;;;;;;;;;;5134808;27;20233;-45
2022/08/16 05:09:20;;;;;;;18.10;12.93;;;;;;;;;;5134091;27;20233;-46
2022/08/16 05:11:51;;;;;;;15.98;12.27;;;;;;;;;;5134149;28;20220;-44
2022/08/16 05:14:24;;;;;;;14.80;12.43;;;;;;;;;;5127035;28;20205;-47
2022/08/16 05:17:12;;;;;;;16.15;13.10;;;;;;;;;;5124937;28;20190;-46
2022/08/16 05:19:39;;;;;;;16.10;12.18;;;;;;;;;;5130290;28;20316;-47
2022/08/16 05:22:20;;;;;;;13.45;12.05;;;;;;;;;;5134766;28;20189;-46
2022/08/16 05:24:54;;;;;;;18.05;12.18;;;;;;;;;;5142747;27;20185;-47
2022/08/16 05:27:22;;;;;;;14.30;11.18;;;;;;;;;;5142407;27;20258;-45
2022/08/16 05:29:49;;;;;;;16.42;12.20;;;;;;;;;;5132157;28;20564;-48
2022/08/16 05:32:31;;;;;;;16.25;11.63;;;;;;;;;;5133505;27;20189;-49
2022/08/16 05:35:06;;;;;;;16.73;11.63;;;;;;;;;;5137510;27;20182;-46
2022/08/16 05:37:42;;;;;;;12.65;11.35;;;;;;;;;;5137490;27;20185;-47
2022/08/16 05:40:12;;;;;;;14.60;11.02;;;;;;;;;;5138958;27;20288;-46
2022/08/16 05:42:42;;;;;;;14.98;11.45;;;;;;;;;;5131460;27;20258;-46
2022/08/16 05:45:15;;;;;;;15.25;10.85;;;;;;;;;;5135407;27;20609;-47
2022/08/16 05:47:50;;;;;;;12.70;11.02;;;;;;;;;;5137711;27;20239;-45
2022/08/16 05:50:38;;;;;;;14.10;10.90;;;;;;;;;;5137726;27;20190;-46
2022/08/16 05:53:09;;;;;;;15.95;11.10;;;;;;;;;;5137416;27;20289;-46
2022/08/16 05:55:48;;;;;;;14.38;10.98;;;;;;;;;;5136922;27;20190;-46
2022/08/16 05:58:17;;;;;;;15.25;12.10;;;;;;;;;;5137262;27;20225;-46
2022/08/16 06:00:59;;;;;;;15.35;11.30;;;;;;;;;;5136022;27;20214;-46
2022/08/16 06:03:29;;;;;;;16.70;10.98;;;;;;;;;;5132048;27;20286;-47
2022/08/16 06:05:59;;;;;;;13.13;10.95;;;;;;;;;;5134903;27;20190;-47
2022/08/16 06:08:30;;;;;;;14.48;11.30;;;;;;;;;;5136600;27;20205;-46
2022/08/16 06:11:13;;;;;;;13.00;11.48;;;;;;;;;;5136667;27;20612;-45
2022/08/16 06:13:46;;;;;;;14.07;11.40;;;;;;;;;;5136844;27;20243;-47
2022/08/16 06:16:18;;;;;;;12.30;10.80;;;;;;;;;;5136882;27;20193;-46
2022/08/16 06:18:50;;;;;;;18.27;12.02;;;;;;;;;;5136540;27;20190;-47
2022/08/16 06:21:17;;;;;;;14.48;11.65;;;;;;;;;;5121024;27;20532;-50
2022/08/16 06:23:55;;;;;;;15.25;11.70;;;;;;;;;;5135184;27;20686;-46
2022/08/16 06:26:27;;;;;;;14.18;11.43;;;;;;;;;;5133499;27;20186;-46
2022/08/16 06:29:06;;;;;;;13.50;11.38;;;;;;;;;;5146378;27;20223;-46
2022/08/16 06:31:37;;;;;;;16.00;11.43;;;;;;;;;;5144033;27;20185;-46
2022/08/16 06:34:17;;;;;;;13.73;10.75;;;;;;;;;;5154837;27;20192;-46
2022/08/16 06:37:07;;;;;;;14.77;10.40;;;;;;;;;;5143760;27;20200;-47
2022/08/16 06:39:37;;;;;;;16.55;11.77;;;;;;;;;;5143152;27;20201;-47
2022/08/16 06:42:38;;;;;;;17.05;11.05;;;;;;;;;;5126344;27;20519;-46
2022/08/16 06:45:39;;;;;;;16.30;11.63;;;;;;;;;;5136757;27;20193;-47
2022/08/16 06:48:18;;;;;;;13.00;11.50;;;;;;;;;;5139050;27;20246;-46
2022/08/16 06:51:04;;;;;;;15.82;12.00;;;;;;;;;;5150048;27;20189;-46
2022/08/16 06:53:34;;;;;;;13.73;12.23;;;;;;;;;;5150630;27;20601;-46
2022/08/16 06:56:05;;;;;;;16.65;12.10;;;;;;;;;;5139643;27;20698;-49
2022/08/16 06:59:00;;;;;;;14.65;11.15;;;;;;;;;;5135400;27;20225;-48
2022/08/16 07:01:33;;;;;;;13.35;11.27;;;;;;;;;;5149964;27;20200;-45
2022/08/16 07:04:19;;;;;;;16.20;10.52;;;;;;;;;;5140425;27;20185;-48
2022/08/16 07:07:13;;;;;;;14.00;11.80;;;;;;;;;;5146446;27;20181;-47
2022/08/16 07:09:41;;;;;;;12.55;11.10;;;;;;;;;;5150674;27;20213;-46
2022/08/16 07:12:08;;;;;;;13.35;11.05;;;;;;;;;;5140248;27;20325;-47
2022/08/16 07:14:40;;;;;;;13.55;10.95;;;;;;;;;;5151355;27;20622;-48
2022/08/16 07:17:09;;;;;;;15.55;11.02;;;;;;;;;;5146493;27;20200;-47
2022/08/16 07:19:46;;;;;;;13.88;11.82;;;;;;;;;;5142237;27;20199;-46
2022/08/16 07:22:42;;;;;;;14.32;11.32;;;;;;;;;;5127955;27;20216;-46
2022/08/16 07:25:48;;;;;;;16.33;10.65;;;;;;;;;;5136145;27;20193;-46
2022/08/16 07:28:16;;;;;;;14.45;10.90;;;;;;;;;;5138425;27;20197;-47
2022/08/16 07:30:51;;;;;;;15.85;10.88;;;;;;;;;;5149926;27;20189;-46
2022/08/16 07:33:31;;;;;;;14.88;11.00;;;;;;;;;;5148362;27;20184;-47
2022/08/16 07:36:21;;;;;;;14.75;11.20;;;;;;;;;;5137858;27;20190;-48
2022/08/16 07:38:51;;;;;;;12.43;11.13;;;;;;;;;;5148392;27;20281;-47
2022/08/16 07:41:19;;;;;;;13.48;11.43;;;;;;;;;;5145285;27;20201;-48
2022/08/16 07:43:51;;;;;;;16.60;10.93;;;;;;;;;;5141249;27;20218;-46
2022/08/16 07:46:19;;;;;;;14.73;10.65;;;;;;;;;;5152809;27;20617;-46
2022/08/16 07:49:20;;;;;;;13.27;10.90;;;;;;;;;;5135357;27;20269;-46
2022/08/16 07:51:48;;;;;;;16.98;11.07;;;;;;;;;;5150433;27;20233;-46
2022/08/16 07:54:22;;;;;;;20.30;11.00;;;;;;;;;;5139478;27;20211;-48
2022/08/16 07:57:07;;;;;;;14.65;10.75;;;;;;;;;;5149162;27;20199;-48
2022/08/16 07:59:38;;;;;;;14.75;10.70;;;;;;;;;;5154691;27;20233;-47
2022/08/16 08:02:12;;;;;;;11.02;9.65;;;;;;;;;;5138103;27;20233;-48
2022/08/16 08:04:48;;;;;;;14.20;10.35;;;;;;;;;;5135387;27;20199;-47
2022/08/16 08:07:16;;;;;;;13.45;10.65;;;;;;;;;;5134958;27;20532;-47
2022/08/16 08:09:43;;;;;;;17.83;10.20;;;;;;;;;;5136787;27;20657;-48
2022/08/16 08:12:12;;;;;;;14.32;10.10;;;;;;;;;;5136719;27;20525;-47
2022/08/16 08:15:00;;;;;;;14.32;10.50;;;;;;;;;;5132348;27;20258;-47
2022/08/16 08:17:30;;;;;;;13.20;10.82;;;;;;;;;;5133723;27;20186;-46
2022/08/16 08:20:16;;;;;;;12.10;10.50;;;;;;;;;;5132242;27;20617;-48
2022/08/16 08:22:55;;;;;;;13.90;11.20;;;;;;;;;;5131863;27;20628;-48
2022/08/16 08:25:29;;;;;;;17.50;10.88;;;;;;;;;;5134793;27;20182;-48
2022/08/16 08:28:17;;;;;;;12.85;10.38;;;;;;;;;;5132591;27;20181;-49
2022/08/16 08:30:47;;;;;;;13.98;11.52;;;;;;;;;;5133988;27;20217;-48
2022/08/16 08:33:30;;;;;;;14.73;11.18;;;;;;;;;;5133548;27;20264;-46
2022/08/16 08:35:59;;;;;;;13.80;11.75;;;;;;;;;;5128675;27;20676;-47
2022/08/16 08:38:29;;;;;;;18.27;11.98;;;;;;;;;;5116591;27;20314;-49
2022/08/16 08:41:15;;;;;;;14.65;10.63;;;;;;;;;;5134321;27;20536;-47
2022/08/16 08:43:49;;;;;;;20.88;12.07;;;;;;;;;;5132644;27;20245;-46
2022/08/16 08:46:19;;;;;;;16.63;11.52;;;;;;;;;;5146914;27;20228;-47
2022/08/16 08:48:50;;;;;;;16.08;10.88;;;;;;;;;;5146196;27;20217;-47
2022/08/16 08:51:30;;;;;;;20.23;12.30;;;;;;;;;;5144830;27;20229;-46
2022/08/16 08:54:07;;;;;;;19.55;11.82;;;;;;;;;;5134353;27;20225;-47
2022/08/16 08:56:40;;;;;;;12.95;10.75;;;;;;;;;;5133742;27;20237;-46
2022/08/16 08:59:34;;;;;;;21.42;11.32;;;;;;;;;;5127209;27;20234;-47
2022/08/16 09:02:08;;;;;;;12.98;10.73;;;;;;;;;;5133046;27;20217;-48
2022/08/16 09:04:44;;;;;;;15.40;11.98;;;;;;;;;;5131815;27;20217;-46
2022/08/16 09:07:16;;;;;;;14.77;11.55;;;;;;;;;;5133466;27;20221;-46
2022/08/16 09:09:45;;;;;;;13.75;12.13;;;;;;;;;;5134103;27;20355;-48
2022/08/16 09:12:13;;;;;;;15.05;11.85;;;;;;;;;;5134024;27;20281;-47
2022/08/16 09:15:06;;;;;;;17.15;11.23;;;;;;;;;;5135069;27;20582;-47
2022/08/16 09:17:34;;;;;;;14.23;11.68;;;;;;;;;;5134054;27;20221;-48
2022/08/16 09:20:25;;;;;;;15.18;11.85;;;;;;;;;;5134003;28;20669;-47
2022/08/16 09:22:53;;;;;;;18.23;11.30;;;;;;;;;;5133838;27;20233;-47
2022/08/16 09:25:47;;;;;;;15.30;11.65;;;;;;;;;;5130781;27;20237;-47
2022/08/16 09:28:15;;;;;;;18.98;12.45;;;;;;;;;;5134067;27;20569;-46
2022/08/16 09:31:09;;;;;;;13.50;11.80;;;;;;;;;;5134305;28;20237;-46
2022/08/16 09:33:37;;;;;;;14.20;11.65;;;;;;;;;;5134793;27;20266;-47
2022/08/16 09:36:06;;;;;;;18.38;12.32;;;;;;;;;;5134433;27;20599;-48
2022/08/16 09:38:53;;;;;;;15.10;11.73;;;;;;;;;;5134792;27;20225;-47
2022/08/16 09:41:26;;;;;;;19.58;11.45;;;;;;;;;;5135385;27;20240;-48
2022/08/16 09:43:55;;;;;;;15.65;11.38;;;;;;;;;;5135663;28;20213;-47
2022/08/16 09:46:27;;;;;;;15.95;10.55;;;;;;;;;;5135701;27;20189;-47
2022/08/16 09:49:12;;;;;;;17.98;11.63;;;;;;;;;;5135412;27;20524;-47
2022/08/16 09:51:41;;;;;;;12.10;10.90;;;;;;;;;;5135593;27;20198;-47
2022/08/16 09:54:09;;;;;;;15.05;11.00;;;;;;;;;;5135478;27;20212;-47
2022/08/16 09:56:43;;;;;;;14.10;10.70;;;;;;;;;;5135665;27;20197;-50
2022/08/16 09:59:21;;;;;;;12.93;9.90;;;;;;;;;;5135542;27;20233;-47
2022/08/16 10:01:49;;;;;;;15.02;10.77;;;;;;;;;;5135446;27;20205;-47
2022/08/16 10:04:18;;;;;;;18.17;10.55;;;;;;;;;;5135607;27;20233;-47
2022/08/16 10:06:58;;;;;;;11.20;10.07;;;;;;;;;;5135560;27;20196;-47
2022/08/16 10:09:27;;;;;;;13.48;11.20;;;;;;;;;;5135195;28;20285;-47
2022/08/16 10:15:13;;;;;;;14.45;9.57;;;;;;;;;;5135576;28;20201;-47
2022/08/16 10:17:47;;;;;;;17.63;11.43;;;;;;;;;;5135220;27;20222;-48
2022/08/16 10:20:29;;;;;;;18.08;11.68;;;;;;;;;;5122698;27;20220;-47
2022/08/16 10:22:57;;;;;;;19.70;12.02;;;;;;;;;;5138759;27;20661;-45
2022/08/16 10:25:32;;;;;;;14.63;10.07;;;;;;;;;;5137813;27;21416;-47
2022/08/16 10:28:19;;;;;;;18.20;11.07;;;;;;;;;;5138272;27;20209;-46
2022/08/16 10:30:56;;;;;;;12.00;10.30;;;;;;;;;;5135026;27;20581;-48
2022/08/16 10:33:26;;;;;;;15.65;10.07;;;;;;;;;;5137486;27;20182;-49
2022/08/16 10:35:56;;;;;;;12.35;9.77;;;;;;;;;;5134491;27;20273;-46
2022/08/16 10:38:29;;;;;;;11.57;10.02;;;;;;;;;;5137283;27;20250;-46
2022/08/16 10:40:59;;;;;;;17.77;10.70;;;;;;;;;;5135788;27;20246;-46
2022/08/16 10:43:27;;;;;;;13.82;9.30;;;;;;;;;;5137443;27;20873;-51
2022/08/16 10:45:57;;;;;;;16.23;11.25;;;;;;;;;;5129476;27;20534;-46
2022/08/16 10:48:26;;;;;;;12.15;9.98;;;;;;;;;;5137751;27;20224;-48
2022/08/16 10:50:57;;;;;;;11.52;9.55;;;;;;;;;;5136886;27;20322;-50
2022/08/16 10:53:27;;;;;;;12.27;10.07;;;;;;;;;;5134867;27;20201;-51
2022/08/16 10:56:05;;;;;;;11.32;10.10;;;;;;;;;;5137319;27;20184;-47
2022/08/16 10:58:56;;;;;;;13.07;10.25;;;;;;;;;;5134654;27;20285;-47
2022/08/16 11:01:44;;;;;;;18.35;10.57;;;;;;;;;;5136568;27;20560;-47
2022/08/16 11:04:31;;;;;;;15.05;11.15;;;;;;;;;;5134772;27;20193;-47
2022/08/16 11:07:18;;;;;;;16.25;10.93;;;;;;;;;;5157546;27;20197;-46
2022/08/16 11:10:06;;;;;;;12.48;10.88;;;;;;;;;;5136083;27;20225;-48
2022/08/16 11:12:53;;;;;;;16.75;10.85;;;;;;;;;;5134554;27;20634;-46
2022/08/16 11:15:21;;;;;;;12.50;10.13;;;;;;;;;;5136573;27;20542;-45
2022/08/16 11:17:53;;;;;;;15.50;11.50;;;;;;;;;;5134535;27;20189;-45
2022/08/16 11:20:43;;;;;;;13.60;11.10;;;;;;;;;;5135638;27;20575;-46
2022/08/16 11:23:16;;;;;;;17.27;10.73;;;;;;;;;;5133987;27;20323;-50
2022/08/16 11:25:43;;;;;;;13.60;11.35;;;;;;;;;;5134611;27;20209;-52
2022/08/16 11:28:32;;;;;;;14.55;11.32;;;;;;;;;;5133171;27;20213;-45
2022/08/16 11:31:20;;;;;;;16.30;11.80;;;;;;;;;;5133973;27;20237;-45
2022/08/16 11:33:47;;;;;;;15.60;12.18;;;;;;;;;;5135297;27;20225;-45
2022/08/16 11:36:18;;;;;;;17.15;12.90;;;;;;;;;;5135183;27;20217;-48
2022/08/16 11:38:55;;;;;;;14.00;11.90;;;;;;;;;;5133481;27;20213;-45
2022/08/16 11:41:27;;;;;;;18.67;12.13;;;;;;;;;;5134096;27;20227;-47
2022/08/16 11:43:56;;;;;;;17.42;12.23;;;;;;;;;;5135222;27;20255;-46
2022/08/16 11:46:23;;;;;;;14.40;11.32;;;;;;;;;;5134302;27;20315;-46
2022/08/16 11:49:11;;;;;;;14.65;11.50;;;;;;;;;;5132843;27;20209;-45
2022/08/16 11:51:42;;;;;;;15.93;10.95;;;;;;;;;;5134749;27;20749;-46
2022/08/16 11:54:11;;;;;;;14.00;10.90;;;;;;;;;;5133593;27;20224;-45
2022/08/16 11:56:49;;;;;;;16.83;11.77;;;;;;;;;;5135666;27;20278;-48
2022/08/16 11:59:22;;;;;;;12.50;11.23;;;;;;;;;;5134942;27;20717;-46
2022/08/16 12:01:57;;;;;;;16.83;10.57;;;;;;;;;;5135075;27;20217;-45
2022/08/16 12:04:45;;;;;;;13.93;11.45;;;;;;;;;;5135955;27;20232;-46
2022/08/16 12:07:18;;;;;;;13.00;10.30;;;;;;;;;;5135864;27;20217;-46
2022/08/16 12:09:45;;;;;;;16.52;11.65;;;;;;;;;;5135741;27;20213;-46
2022/08/16 12:12:14;;;;;;;15.25;10.80;;;;;;;;;;5149418;27;20258;-45
2022/08/16 12:14:44;;;;;;;13.93;11.30;;;;;;;;;;5137362;27;20220;-46
2022/08/16 12:17:13;;;;;;;14.57;11.10;;;;;;;;;;5157022;27;20272;-45
2022/08/16 12:19:40;;;;;;;11.50;9.63;;;;;;;;;;5156887;27;20360;-45
2022/08/16 12:22:07;;;;;;;12.50;10.25;;;;;;;;;;5156622;27;20220;-45
2022/08/16 12:24:49;;;;;;;15.23;9.55;;;;;;;;;;5156264;27;20683;-46
2022/08/16 12:27:23;;;;;;;10.68;9.57;;;;;;;;;;5152178;27;20220;-46
2022/08/16 12:29:52;;;;;;;12.85;9.65;;;;;;;;;;5154388;27;20228;-45
2022/08/16 12:32:20;;;;;;;11.93;10.30;;;;;;;;;;5156384;27;20220;-45
2022/08/16 12:35:11;;;;;;;12.68;9.32;;;;;;;;;;5156060;27;20221;-45
2022/08/16 12:37:40;;;;;;;13.63;9.85;;;;;;;;;;5156237;27;20533;-47
2022/08/16 12:40:09;;;;;;;16.02;9.85;;;;;;;;;;5155942;27;20311;-46
2022/08/16 12:42:53;;;;;;;11.00;9.90;;;;;;;;;;5136126;27;20228;-46
2022/08/16 12:45:27;;;;;;;12.60;11.02;;;;;;;;;;5130725;27;20220;-45
2022/08/16 12:51:01;;;;;;;13.35;10.45;;;;;;;;;;5114471;28;20334;-44
2022/08/16 12:53:29;;;;;;;17.55;10.70;;;;;;;;;;5114734;28;20237;-47
2022/08/16 12:55:59;;;;;;;17.40;10.50;;;;;;;;;;5114934;27;20249;-46
2022/08/16 12:58:27;;;;;;;14.30;10.55;;;;;;;;;;5147141;27;20225;-47
2022/08/16 13:01:21;;;;;;;15.75;11.10;;;;;;;;;;5155263;27;20277;-45
2022/08/16 13:03:50;;;;;;;13.18;10.80;;;;;;;;;;5142493;27;20293;-45
2022/08/16 13:06:38;;;;;;;17.95;10.18;;;;;;;;;;5156153;27;20316;-46
2022/08/16 13:09:19;;;;;;;13.60;10.48;;;;;;;;;;5156043;27;20232;-47
2022/08/16 13:12:22;;;;;;;15.07;10.57;;;;;;;;;;5155358;27;20970;-45
2022/08/16 13:14:52;;;;;;;12.57;9.82;;;;;;;;;;5153295;27;20660;-45
2022/08/16 13:17:22;;;;;;;13.15;10.57;;;;;;;;;;5156217;27;20277;-46
2022/08/16 13:19:52;;;;;;;15.30;10.07;;;;;;;;;;5154672;27;20288;-46
2022/08/16 13:22:46;;;;;;;14.18;10.73;;;;;;;;;;5134924;27;20233;-45
2022/08/16 13:25:18;;;;;;;12.77;10.43;;;;;;;;;;5134247;27;20321;-45
2022/08/16 13:27:48;;;;;;;20.05;10.23;;;;;;;;;;5134816;27;20560;-45
2022/08/16 13:30:31;;;;;;;12.25;9.15;;;;;;;;;;5134338;27;20568;-47
2022/08/16 13:33:04;;;;;;;11.65;9.30;;;;;;;;;;5134056;28;20221;-46
2022/08/16 13:35:40;;;;;;;13.50;9.93;;;;;;;;;;5153562;27;20611;-46
2022/08/16 13:38:11;;;;;;;20.10;9.48;;;;;;;;;;5127141;28;20710;-45
2022/08/16 13:40:54;;;;;;;13.80;10.30;;;;;;;;;;5125763;27;20315;-46
2022/08/16 13:43:25;;;;;;;11.80;9.57;;;;;;;;;;5134800;27;20217;-46
2022/08/16 13:45:54;;;;;;;15.43;9.50;;;;;;;;;;5135435;27;20232;-47
2022/08/16 13:48:24;;;;;;;12.65;8.98;;;;;;;;;;5134643;27;20274;-46
2022/08/16 13:51:10;;;;;;;13.18;9.05;;;;;;;;;;5130042;27;20241;-48
2022/08/16 13:53:48;;;;;;;15.40;9.63;;;;;;;;;;5131791;27;20307;-50
2022/08/16 13:56:33;;;;;;;13.63;9.57;;;;;;;;;;5137014;27;20221;-45
2022/08/16 13:59:14;;;;;;;12.27;9.60;;;;;;;;;;5135204;27;20331;-45
2022/08/16 14:01:51;;;;;;;14.55;9.70;;;;;;;;;;5139347;27;20229;-45
2022/08/16 14:04:27;;;;;;;13.32;9.57;;;;;;;;;;5139129;27;20605;-44
2022/08/16 14:06:56;;;;;;;16.92;10.13;;;;;;;;;;5137061;27;20193;-50
2022/08/16 14:09:24;;;;;;;15.32;9.38;;;;;;;;;;5138951;27;20583;-46
2022/08/16 14:11:53;;;;;;;13.13;8.98;;;;;;;;;;5139148;27;20217;-47
2022/08/16 14:14:20;;;;;;;13.63;8.85;;;;;;;;;;5138378;27;20269;-45
2022/08/16 14:16:59;;;;;;;14.30;9.45;;;;;;;;;;5139345;27;20236;-46
2022/08/16 14:19:27;;;;;;;10.68;9.15;;;;;;;;;;5139145;27;20204;-43
2022/08/16 14:21:57;;;;;;;10.27;9.18;;;;;;;;;;5138461;27;20227;-45
2022/08/16 14:24:43;;;;;;;14.90;9.63;;;;;;;;;;5133273;27;20204;-44
2022/08/16 14:27:19;;;;;;;11.50;9.02;;;;;;;;;;5138984;27;20185;-45
2022/08/16 14:29:49;;;;;;;13.75;9.43;;;;;;;;;;5137751;27;20227;-45
2022/08/16 14:32:18;;;;;;;16.20;9.27;;;;;;;;;;5137789;27;20219;-44
2022/08/16 14:35:07;;;;;;;14.48;9.00;;;;;;;;;;5132062;27;20287;-47
2022/08/16 14:37:35;;;;;;;12.85;9.43;;;;;;;;;;5138044;27;20192;-48
2022/08/16 14:40:08;;;;;;;16.17;10.30;;;;;;;;;;5123391;27;20685;-46
2022/08/16 14:42:38;;;;;;;15.75;10.45;;;;;;;;;;5151792;27;20315;-45
2022/08/16 14:45:06;;;;;;;15.90;9.10;;;;;;;;;;5140417;27;20229;-45
2022/08/16 14:47:36;;;;;;;18.40;9.70;;;;;;;;;;5129601;27;20582;-45
2022/08/16 14:50:05;;;;;;;14.88;9.85;;;;;;;;;;5151029;27;20691;-46
2022/08/16 14:52:34;;;;;;;10.05;8.23;;;;;;;;;;5157962;27;20232;-45
2022/08/16 14:55:22;;;;;;;11.38;8.60;;;;;;;;;;5158290;27;20282;-47
2022/08/16 14:57:49;;;;;;;13.68;8.90;;;;;;;;;;5155867;27;20234;-45
2022/08/16 15:00:21;;;;;;;14.43;9.07;;;;;;;;;;5153535;27;20244;-44
2022/08/16 15:03:01;;;;;;;12.65;8.48;;;;;;;;;;5116157;28;20308;-45
2022/08/16 15:05:30;;;;;;;13.60;8.15;;;;;;;;;;5131793;27;20565;-45
2022/08/16 15:08:03;;;;;;;9.43;8.00;;;;;;;;;;5143424;27;20285;-47
2022/08/16 15:10:30;;;;;;;13.35;8.50;;;;;;;;;;5153720;27;20221;-45
2022/08/16 15:12:59;;;;;;;12.40;8.35;;;;;;;;;;5140819;27;20217;-44